Time;durP1;ratioP1;P1;durP2;ratioP2;P2;SDS_P1;SDS_P2;PMS_P1;PMS_P2;Temp;Humidity;BMP_temperature;BMP_pressure;BME280_temperature;BME280_humidity;BME280_pressure;Samples;Min_cycle;Max_cycle;Signal;HPM_P1;HPM_P2
2023/08/27 00:01:57;;;;;;;10.47;7.13;;;;;;;;;;5073051;28;20463;-71
2023/08/27 00:04:24;;;;;;;15.07;8.10;;;;;;;;;;5072734;28;20970;-72
2023/08/27 00:06:52;;;;;;;9.70;8.20;;;;;;;;;;5072917;28;20478;-71
2023/08/27 00:09:19;;;;;;;15.03;8.97;;;;;;;;;;5073073;28;20814;-71
2023/08/27 00:11:46;;;;;;;10.87;7.97;;;;;;;;;;5072636;28;20455;-71
2023/08/27 00:14:13;;;;;;;11.03;8.37;;;;;;;;;;5073040;28;20447;-71
2023/08/27 00:16:41;;;;;;;9.40;8.10;;;;;;;;;;5072648;28;20447;-71
2023/08/27 00:19:09;;;;;;;8.53;7.73;;;;;;;;;;5072888;28;20516;-71
2023/08/27 00:21:36;;;;;;;10.47;8.00;;;;;;;;;;5072879;28;20501;-71
2023/08/27 00:24:04;;;;;;;16.37;8.13;;;;;;;;;;5072763;28;20454;-71
2023/08/27 00:26:31;;;;;;;8.67;7.67;;;;;;;;;;5072872;28;20483;-71
2023/08/27 00:28:59;;;;;;;11.10;6.90;;;;;;;;;;5073044;28;20806;-71
2023/08/27 00:31:26;;;;;;;10.03;7.03;;;;;;;;;;5072839;28;20947;-71
2023/08/27 00:33:54;;;;;;;12.60;8.13;;;;;;;;;;5072839;28;20972;-71
2023/08/27 00:36:21;;;;;;;10.50;7.10;;;;;;;;;;5072807;28;20448;-71
2023/08/27 00:38:49;;;;;;;14.97;7.37;;;;;;;;;;5072458;28;20483;-71
2023/08/27 00:41:16;;;;;;;9.17;7.67;;;;;;;;;;5074118;28;20454;-71
2023/08/27 00:43:43;;;;;;;13.50;9.03;;;;;;;;;;5076452;28;20469;-71
2023/08/27 00:46:11;;;;;;;9.37;7.93;;;;;;;;;;5076613;28;20485;-71
2023/08/27 00:48:38;;;;;;;14.77;8.40;;;;;;;;;;5076609;28;20449;-71
2023/08/27 00:51:07;;;;;;;8.87;7.80;;;;;;;;;;5076184;28;20452;-71
2023/08/27 00:53:34;;;;;;;12.90;8.63;;;;;;;;;;5076319;28;20472;-71
2023/08/27 00:56:02;;;;;;;15.00;9.33;;;;;;;;;;5076137;28;20459;-71
2023/08/27 00:58:29;;;;;;;15.90;8.97;;;;;;;;;;5075874;28;20451;-71
2023/08/27 01:00:56;;;;;;;13.63;7.63;;;;;;;;;;5075987;28;20460;-71
2023/08/27 01:03:24;;;;;;;9.50;7.07;;;;;;;;;;5075829;28;20480;-71
2023/08/27 01:05:52;;;;;;;12.37;7.90;;;;;;;;;;5076002;28;20432;-71
2023/08/27 01:08:23;;;;;;;11.10;7.77;;;;;;;;;;5076180;28;20804;-71
2023/08/27 01:10:56;;;;;;;10.87;7.30;;;;;;;;;;5076112;28;20435;-71
2023/08/27 01:13:28;;;;;;;13.13;8.10;;;;;;;;;;5076019;28;20821;-71
2023/08/27 01:15:58;;;;;;;9.70;6.60;;;;;;;;;;5076061;28;20909;-71
2023/08/27 01:18:26;;;;;;;12.40;8.67;;;;;;;;;;5075705;28;20443;-71
2023/08/27 01:20:53;;;;;;;11.93;8.77;;;;;;;;;;5075887;28;20497;-71
2023/08/27 01:23:22;;;;;;;13.30;9.87;;;;;;;;;;5075460;28;20471;-71
2023/08/27 01:25:52;;;;;;;12.67;8.53;;;;;;;;;;5075832;28;20830;-71
2023/08/27 01:28:25;;;;;;;13.53;9.30;;;;;;;;;;5076051;28;21072;-71
2023/08/27 01:30:55;;;;;;;15.80;8.90;;;;;;;;;;5075668;28;20436;-71
2023/08/27 01:33:24;;;;;;;17.33;9.20;;;;;;;;;;5075689;28;20468;-71
2023/08/27 01:35:51;;;;;;;20.53;13.80;;;;;;;;;;5075570;28;20455;-71
2023/08/27 01:38:19;;;;;;;22.40;14.47;;;;;;;;;;5075689;28;20892;-71
2023/08/27 01:40:47;;;;;;;23.20;15.67;;;;;;;;;;5075224;28;20498;-71
2023/08/27 01:43:15;;;;;;;24.20;13.33;;;;;;;;;;5075430;28;20471;-71
2023/08/27 01:45:42;;;;;;;20.70;13.27;;;;;;;;;;5075465;28;20936;-71
2023/08/27 01:48:09;;;;;;;17.60;13.30;;;;;;;;;;5075422;28;20448;-71
2023/08/27 01:50:36;;;;;;;25.03;16.27;;;;;;;;;;5074974;28;20450;-71
2023/08/27 01:53:03;;;;;;;20.30;13.87;;;;;;;;;;5074140;28;20837;-72
2023/08/27 01:55:30;;;;;;;21.53;14.13;;;;;;;;;;5075296;28;20937;-72
2023/08/27 01:57:59;;;;;;;22.73;14.90;;;;;;;;;;5074875;28;20444;-71
2023/08/27 02:00:26;;;;;;;18.67;14.10;;;;;;;;;;5074714;28;20568;-71
2023/08/27 02:02:53;;;;;;;20.53;14.00;;;;;;;;;;5074836;28;20825;-71
2023/08/27 02:05:21;;;;;;;17.87;12.23;;;;;;;;;;5074982;28;20428;-71
2023/08/27 02:07:48;;;;;;;18.47;10.67;;;;;;;;;;5074686;28;20447;-71
2023/08/27 02:10:15;;;;;;;12.73;9.80;;;;;;;;;;5074635;28;20968;-72
2023/08/27 02:12:42;;;;;;;17.77;11.03;;;;;;;;;;5074771;28;20474;-72
2023/08/27 02:15:11;;;;;;;14.40;9.57;;;;;;;;;;5074466;28;20444;-72
2023/08/27 02:17:39;;;;;;;12.33;7.73;;;;;;;;;;5075019;28;20475;-72
2023/08/27 02:20:09;;;;;;;9.73;8.20;;;;;;;;;;5074624;28;21017;-72
2023/08/27 02:22:36;;;;;;;12.73;8.50;;;;;;;;;;5074157;28;20533;-72
2023/08/27 02:25:03;;;;;;;11.17;7.90;;;;;;;;;;5074282;28;20444;-72
2023/08/27 02:27:31;;;;;;;7.63;6.70;;;;;;;;;;5074477;28;20452;-72
2023/08/27 02:29:58;;;;;;;9.60;6.17;;;;;;;;;;5074485;28;20436;-72
2023/08/27 02:32:26;;;;;;;9.50;7.13;;;;;;;;;;5074423;28;20838;-72
2023/08/27 02:34:53;;;;;;;11.97;5.87;;;;;;;;;;5074454;28;20959;-72
2023/08/27 02:37:20;;;;;;;46.80;29.63;;;;;;;;;;5074298;28;20459;-72
2023/08/27 02:39:48;;;;;;;9.20;7.03;;;;;;;;;;5073876;28;20480;-72
2023/08/27 02:42:15;;;;;;;11.27;6.47;;;;;;;;;;5073798;28;20467;-72
2023/08/27 02:44:42;;;;;;;12.93;7.60;;;;;;;;;;5074039;28;20951;-72
2023/08/27 02:47:09;;;;;;;8.03;6.63;;;;;;;;;;5073722;28;20439;-72
2023/08/27 02:49:38;;;;;;;14.97;8.20;;;;;;;;;;5073913;28;20802;-72
2023/08/27 02:52:05;;;;;;;12.03;8.03;;;;;;;;;;5074192;28;20834;-72
2023/08/27 02:54:32;;;;;;;12.03;8.23;;;;;;;;;;5073843;28;20928;-72
2023/08/27 02:56:59;;;;;;;12.30;8.50;;;;;;;;;;5073779;28;20443;-72
2023/08/27 02:59:26;;;;;;;12.87;8.80;;;;;;;;;;5073409;28;20487;-72
2023/08/27 03:01:53;;;;;;;11.13;8.13;;;;;;;;;;5073453;28;20551;-72
2023/08/27 03:04:21;;;;;;;12.50;9.13;;;;;;;;;;5073179;28;20463;-71
2023/08/27 03:06:49;;;;;;;10.43;7.80;;;;;;;;;;5073688;28;20448;-71
2023/08/27 03:09:16;;;;;;;15.07;7.60;;;;;;;;;;5073620;28;20475;-72
2023/08/27 03:11:43;;;;;;;11.73;9.30;;;;;;;;;;5073219;28;20547;-71
2023/08/27 03:14:09;;;;;;;10.77;7.90;;;;;;;;;;5073626;28;20452;-71
2023/08/27 03:16:38;;;;;;;14.50;8.90;;;;;;;;;;5073574;28;20479;-71
2023/08/27 03:19:05;;;;;;;10.00;7.87;;;;;;;;;;5073572;28;20502;-71
2023/08/27 03:21:33;;;;;;;12.10;9.17;;;;;;;;;;5073501;28;20862;-71
2023/08/27 03:24:01;;;;;;;11.93;8.97;;;;;;;;;;5073078;28;20594;-71
2023/08/27 03:26:28;;;;;;;12.40;8.67;;;;;;;;;;5073466;28;20820;-71
2023/08/27 03:28:55;;;;;;;13.20;9.07;;;;;;;;;;5073426;28;20444;-71
2023/08/27 03:31:22;;;;;;;11.70;9.70;;;;;;;;;;5073202;28;20455;-71
2023/08/27 03:33:50;;;;;;;16.80;9.60;;;;;;;;;;5073310;28;20842;-71
2023/08/27 03:36:17;;;;;;;16.50;10.10;;;;;;;;;;5073360;28;20439;-71
2023/08/27 03:38:44;;;;;;;14.40;10.37;;;;;;;;;;5072870;28;20455;-71
2023/08/27 03:41:12;;;;;;;12.67;10.73;;;;;;;;;;5073190;28;20834;-71
2023/08/27 03:43:39;;;;;;;16.60;12.97;;;;;;;;;;5073166;28;20472;-71
2023/08/27 03:46:07;;;;;;;19.07;13.20;;;;;;;;;;5073270;28;20810;-71
2023/08/27 03:48:34;;;;;;;24.13;14.73;;;;;;;;;;5073190;28;20447;-71
2023/08/27 03:51:01;;;;;;;23.77;16.80;;;;;;;;;;5072894;28;20451;-71
2023/08/27 03:53:28;;;;;;;34.87;21.30;;;;;;;;;;5072972;28;20490;-71
2023/08/27 03:55:55;;;;;;;35.30;21.00;;;;;;;;;;5072818;28;20646;-71
2023/08/27 03:58:24;;;;;;;25.63;19.40;;;;;;;;;;5073129;28;20527;-71
2023/08/27 04:00:51;;;;;;;37.00;21.23;;;;;;;;;;5072803;28;20483;-71
2023/08/27 04:03:18;;;;;;;32.17;19.90;;;;;;;;;;5072544;28;20486;-71
2023/08/27 04:05:49;;;;;;;25.10;18.40;;;;;;;;;;5073022;28;20947;-71
2023/08/27 04:08:16;;;;;;;24.23;17.60;;;;;;;;;;5072762;28;20443;-71
2023/08/27 04:10:48;;;;;;;19.20;14.67;;;;;;;;;;5073045;28;20443;-71
2023/08/27 04:13:15;;;;;;;17.20;13.90;;;;;;;;;;5073035;28;20467;-71
2023/08/27 04:15:44;;;;;;;12.93;10.50;;;;;;;;;;5073378;28;20444;-72
2023/08/27 04:18:11;;;;;;;15.73;12.57;;;;;;;;;;5076920;28;20936;-72
2023/08/27 04:20:38;;;;;;;15.20;11.27;;;;;;;;;;5076835;28;20487;-72
2023/08/27 04:23:05;;;;;;;17.00;11.17;;;;;;;;;;5076444;28;20464;-71
2023/08/27 04:25:32;;;;;;;12.10;9.20;;;;;;;;;;5076838;28;20486;-72
2023/08/27 04:27:59;;;;;;;13.07;9.90;;;;;;;;;;5076462;28;20447;-72
2023/08/27 04:30:26;;;;;;;11.60;9.40;;;;;;;;;;5076717;28;20793;-72
2023/08/27 04:32:55;;;;;;;13.63;9.30;;;;;;;;;;5076532;28;20538;-72
2023/08/27 04:35:22;;;;;;;10.83;8.20;;;;;;;;;;5076701;28;20998;-72
2023/08/27 04:37:49;;;;;;;10.73;9.30;;;;;;;;;;5076586;28;20443;-72
2023/08/27 04:40:16;;;;;;;9.53;7.20;;;;;;;;;;5076167;28;20479;-72
2023/08/27 04:42:43;;;;;;;10.20;8.10;;;;;;;;;;5076437;28;20486;-72
2023/08/27 04:45:12;;;;;;;9.70;6.67;;;;;;;;;;5076679;28;20816;-72
2023/08/27 04:47:39;;;;;;;8.70;5.80;;;;;;;;;;5076461;28;20436;-72
2023/08/27 04:50:09;;;;;;;7.93;5.50;;;;;;;;;;5076147;28;20440;-72
2023/08/27 04:52:36;;;;;;;8.30;5.90;;;;;;;;;;5075941;28;20484;-72
2023/08/27 04:55:05;;;;;;;8.97;6.50;;;;;;;;;;5076295;28;20448;-72
2023/08/27 04:57:32;;;;;;;6.53;5.43;;;;;;;;;;5075685;28;20930;-72
2023/08/27 05:00:00;;;;;;;6.30;5.70;;;;;;;;;;5074782;28;20458;-72
2023/08/27 05:02:27;;;;;;;7.33;5.40;;;;;;;;;;5075125;28;20558;-72
2023/08/27 05:04:54;;;;;;;10.93;6.20;;;;;;;;;;5074864;28;20509;-72
2023/08/27 05:07:23;;;;;;;9.80;6.07;;;;;;;;;;5075142;28;20451;-72
2023/08/27 05:09:50;;;;;;;7.50;5.60;;;;;;;;;;5074834;28;20452;-72
2023/08/27 05:12:17;;;;;;;8.47;5.80;;;;;;;;;;5075182;28;20467;-71
2023/08/27 05:14:44;;;;;;;10.37;8.60;;;;;;;;;;5074627;28;20447;-71
2023/08/27 05:17:11;;;;;;;11.80;7.80;;;;;;;;;;5074789;28;20451;-71
2023/08/27 05:19:38;;;;;;;11.30;7.50;;;;;;;;;;5074987;28;20443;-71
2023/08/27 05:22:06;;;;;;;11.60;8.40;;;;;;;;;;5074817;28;20857;-71
2023/08/27 05:24:34;;;;;;;12.07;8.20;;;;;;;;;;5074960;28;20924;-71
2023/08/27 05:27:03;;;;;;;11.97;8.17;;;;;;;;;;5074779;28;20796;-71
2023/08/27 05:29:30;;;;;;;8.43;7.20;;;;;;;;;;5074778;28;20447;-71
2023/08/27 05:31:57;;;;;;;14.60;8.70;;;;;;;;;;5074700;28;20459;-71
2023/08/27 05:34:24;;;;;;;13.90;9.80;;;;;;;;;;5074429;28;20450;-71
2023/08/27 05:36:51;;;;;;;13.03;8.80;;;;;;;;;;5074681;28;20452;-71
2023/08/27 05:39:18;;;;;;;9.30;8.30;;;;;;;;;;5074474;28;20542;-71
2023/08/27 05:41:47;;;;;;;9.70;7.60;;;;;;;;;;5074287;28;21019;-71
2023/08/27 05:44:14;;;;;;;14.03;9.40;;;;;;;;;;5074234;28;20444;-71
2023/08/27 05:46:41;;;;;;;11.00;8.20;;;;;;;;;;5074180;28;20432;-71
2023/08/27 05:49:08;;;;;;;10.50;8.60;;;;;;;;;;5074284;28;20483;-71
2023/08/27 05:51:35;;;;;;;9.33;7.00;;;;;;;;;;5074074;28;20440;-71
2023/08/27 05:54:03;;;;;;;7.77;7.00;;;;;;;;;;5074368;28;20448;-71
2023/08/27 05:56:30;;;;;;;10.43;7.57;;;;;;;;;;5074302;28;20471;-71
2023/08/27 05:58:59;;;;;;;8.13;6.97;;;;;;;;;;5074217;28;20811;-71
2023/08/27 06:01:27;;;;;;;8.90;7.40;;;;;;;;;;5073903;28;20491;-71
2023/08/27 06:03:54;;;;;;;9.33;7.60;;;;;;;;;;5073639;28;20486;-71
2023/08/27 06:06:22;;;;;;;8.63;7.00;;;;;;;;;;5073876;28;20546;-71
2023/08/27 06:08:49;;;;;;;10.27;7.30;;;;;;;;;;5073928;28;20443;-71
2023/08/27 06:11:16;;;;;;;9.13;7.10;;;;;;;;;;5073605;28;20443;-71
2023/08/27 06:13:43;;;;;;;9.77;7.27;;;;;;;;;;5073994;28;20832;-71
2023/08/27 06:16:11;;;;;;;11.30;7.33;;;;;;;;;;5073866;28;20443;-71
2023/08/27 06:18:39;;;;;;;9.27;7.70;;;;;;;;;;5073712;28;20479;-72
2023/08/27 06:21:06;;;;;;;9.77;7.30;;;;;;;;;;5073361;28;20861;-72
2023/08/27 06:23:34;;;;;;;9.63;8.03;;;;;;;;;;5073712;28;21033;-71
2023/08/27 06:26:05;;;;;;;8.83;7.70;;;;;;;;;;5073932;28;20960;-72
2023/08/27 06:28:32;;;;;;;9.00;7.27;;;;;;;;;;5073264;28;20446;-70
2023/08/27 06:30:59;;;;;;;9.17;7.60;;;;;;;;;;5073865;28;20897;-71
2023/08/27 06:33:28;;;;;;;10.47;8.23;;;;;;;;;;5073170;28;20463;-71
2023/08/27 06:35:55;;;;;;;11.90;8.20;;;;;;;;;;5073514;28;20951;-71
2023/08/27 06:38:22;;;;;;;9.70;7.60;;;;;;;;;;5072913;28;20458;-72
2023/08/27 06:40:49;;;;;;;8.83;7.90;;;;;;;;;;5072912;28;20486;-72
2023/08/27 06:43:16;;;;;;;14.90;7.50;;;;;;;;;;5073112;28;20841;-72
2023/08/27 06:45:43;;;;;;;7.83;7.03;;;;;;;;;;5073288;28;20456;-77
2023/08/27 06:48:10;;;;;;;12.10;6.60;;;;;;;;;;5072427;28;20443;-77
2023/08/27 06:50:39;;;;;;;6.97;6.30;;;;;;;;;;5073125;28;20913;-78
2023/08/27 06:53:06;;;;;;;8.33;5.83;;;;;;;;;;5072587;28;20467;-78
2023/08/27 06:55:33;;;;;;;7.23;6.53;;;;;;;;;;5072821;28;20956;-76
2023/08/27 06:58:00;;;;;;;7.77;5.80;;;;;;;;;;5072483;28;20462;-77
2023/08/27 07:00:27;;;;;;;7.50;6.20;;;;;;;;;;5072432;28;20443;-77
2023/08/27 07:02:55;;;;;;;6.43;5.77;;;;;;;;;;5072045;28;20493;-78
2023/08/27 07:05:23;;;;;;;6.00;5.20;;;;;;;;;;5072421;28;20447;-78
2023/08/27 07:07:52;;;;;;;5.50;4.87;;;;;;;;;;5072588;28;20452;-77
2023/08/27 07:10:19;;;;;;;8.33;6.20;;;;;;;;;;5072848;28;20466;-77
2023/08/27 07:12:46;;;;;;;6.97;6.00;;;;;;;;;;5072238;28;20464;-78
2023/08/27 07:15:13;;;;;;;7.60;5.40;;;;;;;;;;5072715;28;20806;-77
2023/08/27 07:17:41;;;;;;;7.10;5.93;;;;;;;;;;5072772;28;20493;-77
2023/08/27 07:20:11;;;;;;;7.60;6.90;;;;;;;;;;5072740;28;20832;-78
2023/08/27 07:22:38;;;;;;;6.00;4.50;;;;;;;;;;5072455;28;20992;-77
2023/08/27 07:25:08;;;;;;;7.97;5.40;;;;;;;;;;5072519;28;20470;-76
2023/08/27 07:27:36;;;;;;;6.50;4.23;;;;;;;;;;5072938;28;20474;-76
2023/08/27 07:30:04;;;;;;;4.47;4.07;;;;;;;;;;5073794;28;20454;-78
2023/08/27 07:32:31;;;;;;;4.20;3.80;;;;;;;;;;5073959;28;20476;-78
2023/08/27 07:34:58;;;;;;;5.57;3.60;;;;;;;;;;5074144;28;20455;-77
2023/08/27 07:37:26;;;;;;;3.70;3.40;;;;;;;;;;5073977;28;20451;-78
2023/08/27 07:39:53;;;;;;;4.00;3.60;;;;;;;;;;5073778;28;20824;-77
2023/08/27 07:42:22;;;;;;;3.80;3.50;;;;;;;;;;5073543;28;20507;-77
2023/08/27 07:44:49;;;;;;;3.27;2.97;;;;;;;;;;5072527;28;20443;-77
2023/08/27 07:47:16;;;;;;;4.43;3.30;;;;;;;;;;5068795;28;20898;-77
2023/08/27 07:49:43;;;;;;;3.03;2.83;;;;;;;;;;5054482;28;20464;-77
2023/08/27 07:52:10;;;;;;;3.63;3.13;;;;;;;;;;5058710;28;21038;-77
2023/08/27 07:54:37;;;;;;;3.67;3.37;;;;;;;;;;5055661;28;20445;-77
2023/08/27 07:57:05;;;;;;;3.90;3.40;;;;;;;;;;5052207;28;20890;-77
2023/08/27 07:59:33;;;;;;;3.47;2.80;;;;;;;;;;5052197;28;20460;-77
2023/08/27 08:02:00;;;;;;;3.37;3.00;;;;;;;;;;5051893;28;20519;-77
2023/08/27 08:04:27;;;;;;;5.50;3.60;;;;;;;;;;5052058;28;20463;-77
2023/08/27 08:06:54;;;;;;;3.40;2.67;;;;;;;;;;5052125;28;20467;-77
2023/08/27 08:09:21;;;;;;;4.13;3.37;;;;;;;;;;5052473;28;20441;-77
2023/08/27 08:11:49;;;;;;;3.80;3.50;;;;;;;;;;5051916;28;20941;-77
2023/08/27 08:14:16;;;;;;;3.03;2.73;;;;;;;;;;5052603;28;20470;-77
2023/08/27 08:16:44;;;;;;;3.67;3.37;;;;;;;;;;5052212;28;20606;-77
2023/08/27 08:19:26;;;;;;;3.83;2.80;;;;;;;;;;5051693;28;20449;-77
2023/08/27 08:21:53;;;;;;;7.47;3.30;;;;;;;;;;5051897;28;20480;-77
2023/08/27 08:24:20;;;;;;;2.97;2.67;;;;;;;;;;5050669;28;20484;-78
2023/08/27 08:26:49;;;;;;;4.47;4.07;;;;;;;;;;5051381;28;20452;-77
2023/08/27 08:29:16;;;;;;;3.50;3.20;;;;;;;;;;5051584;28;20456;-77
2023/08/27 08:31:45;;;;;;;3.30;3.00;;;;;;;;;;5051301;28;20448;-78
2023/08/27 08:34:12;;;;;;;5.17;4.10;;;;;;;;;;5051489;28;20809;-76
2023/08/27 08:36:39;;;;;;;6.33;4.67;;;;;;;;;;5051070;28;20449;-78
2023/08/27 08:39:06;;;;;;;4.57;3.80;;;;;;;;;;5051302;28;20460;-77
2023/08/27 08:41:34;;;;;;;3.70;3.40;;;;;;;;;;5051089;28;20495;-77
2023/08/27 08:44:07;;;;;;;5.07;3.73;;;;;;;;;;5051362;28;21013;-78
2023/08/27 08:46:36;;;;;;;3.77;2.93;;;;;;;;;;5051473;28;20919;-77
2023/08/27 08:49:06;;;;;;;3.57;2.90;;;;;;;;;;5051192;28;20458;-77
2023/08/27 08:51:34;;;;;;;3.60;3.30;;;;;;;;;;5051202;28;20813;-77
2023/08/27 08:54:05;;;;;;;3.13;2.70;;;;;;;;;;5050668;28;20816;-77
2023/08/27 08:56:37;;;;;;;4.27;2.97;;;;;;;;;;5051188;28;20999;-77
2023/08/27 08:59:05;;;;;;;2.87;2.20;;;;;;;;;;5051323;28;20452;-77
2023/08/27 09:01:32;;;;;;;3.77;3.40;;;;;;;;;;5070859;28;20487;-77
2023/08/27 09:04:01;;;;;;;3.27;2.97;;;;;;;;;;5074136;28;20538;-77
2023/08/27 09:06:29;;;;;;;3.30;2.90;;;;;;;;;;5074479;28;20519;-77
2023/08/27 09:08:57;;;;;;;3.07;2.73;;;;;;;;;;5074527;28;20812;-77
2023/08/27 09:11:26;;;;;;;4.53;3.53;;;;;;;;;;5074154;28;20444;-77
2023/08/27 09:13:54;;;;;;;3.60;2.57;;;;;;;;;;5074105;28;20467;-77
2023/08/27 09:16:21;;;;;;;3.80;2.77;;;;;;;;;;5074397;28;20987;-78
2023/08/27 09:18:49;;;;;;;2.60;2.40;;;;;;;;;;5074544;28;20952;-77
2023/08/27 09:21:16;;;;;;;8.43;3.93;;;;;;;;;;5074307;28;20766;-77
2023/08/27 09:23:44;;;;;;;3.93;3.63;;;;;;;;;;5074513;28;20477;-77
2023/08/27 09:26:14;;;;;;;3.50;2.50;;;;;;;;;;5074432;28;21027;-77
2023/08/27 09:28:41;;;;;;;4.93;2.73;;;;;;;;;;5073761;28;20556;-76
2023/08/27 09:31:10;;;;;;;7.33;6.60;;;;;;;;;;5073043;28;20458;-75
2023/08/27 09:33:39;;;;;;;5.17;4.57;;;;;;;;;;5073084;28;20519;-76
2023/08/27 09:36:07;;;;;;;5.90;3.60;;;;;;;;;;5072774;28;20905;-75
2023/08/27 09:38:34;;;;;;;3.60;2.33;;;;;;;;;;5072792;28;20458;-76
2023/08/27 09:41:12;;;;;;;4.00;2.20;;;;;;;;;;5072455;28;20509;-76
2023/08/27 09:43:39;;;;;;;3.00;2.20;;;;;;;;;;5072246;28;20925;-76
2023/08/27 09:46:10;;;;;;;2.63;2.43;;;;;;;;;;5072465;28;20450;-76
2023/08/27 09:48:37;;;;;;;3.97;2.50;;;;;;;;;;5064228;28;20452;-76
2023/08/27 09:51:05;;;;;;;2.67;2.33;;;;;;;;;;5053237;28;20445;-76
2023/08/27 09:53:33;;;;;;;3.03;2.73;;;;;;;;;;5053923;28;20460;-76
2023/08/27 09:56:02;;;;;;;4.40;4.00;;;;;;;;;;5053659;28;20445;-76
2023/08/27 09:58:31;;;;;;;3.80;2.63;;;;;;;;;;5053762;28;20960;-76
2023/08/27 10:01:03;;;;;;;2.80;2.13;;;;;;;;;;5053627;28;20507;-76
2023/08/27 10:03:30;;;;;;;3.30;2.30;;;;;;;;;;5053403;28;20564;-76
2023/08/27 10:05:57;;;;;;;3.93;2.40;;;;;;;;;;5053555;28;20483;-76
2023/08/27 10:08:25;;;;;;;11.40;4.10;;;;;;;;;;5053494;28;20495;-76
2023/08/27 10:10:52;;;;;;;2.67;2.47;;;;;;;;;;5053451;28;20460;-77
2023/08/27 10:13:21;;;;;;;4.47;3.33;;;;;;;;;;5052344;28;20856;-77
2023/08/27 10:15:50;;;;;;;3.47;2.70;;;;;;;;;;5053506;28;20949;-76
2023/08/27 10:18:18;;;;;;;4.27;2.33;;;;;;;;;;5053309;28;20453;-76
2023/08/27 10:20:45;;;;;;;4.50;4.10;;;;;;;;;;5053511;28;20467;-76
2023/08/27 10:23:12;;;;;;;4.00;3.30;;;;;;;;;;5053073;28;20977;-76
2023/08/27 10:25:40;;;;;;;4.50;4.00;;;;;;;;;;5053426;28;20567;-76
2023/08/27 10:28:08;;;;;;;3.37;3.07;;;;;;;;;;5053265;28;20452;-76
2023/08/27 10:30:36;;;;;;;4.20;2.50;;;;;;;;;;5052994;28;20472;-76
2023/08/27 10:33:05;;;;;;;4.10;2.83;;;;;;;;;;5053134;28;20476;-76
2023/08/27 10:35:35;;;;;;;2.87;2.10;;;;;;;;;;5053066;28;20452;-77
2023/08/27 10:38:02;;;;;;;2.33;2.13;;;;;;;;;;5052811;28;20453;-76
2023/08/27 10:40:30;;;;;;;3.57;2.20;;;;;;;;;;5053163;28;20458;-76
2023/08/27 10:43:08;;;;;;;2.77;2.57;;;;;;;;;;5052762;28;20492;-76
2023/08/27 10:45:38;;;;;;;2.70;2.40;;;;;;;;;;5052778;28;20445;-76
2023/08/27 10:48:23;;;;;;;3.03;2.80;;;;;;;;;;5052640;28;20511;-76
2023/08/27 10:50:51;;;;;;;3.50;3.20;;;;;;;;;;5053165;28;20448;-76
2023/08/27 10:53:19;;;;;;;3.57;3.10;;;;;;;;;;5053077;28;20468;-77
2023/08/27 10:55:50;;;;;;;8.80;8.00;;;;;;;;;;5052976;28;20457;-76
2023/08/27 10:58:17;;;;;;;24.27;16.10;;;;;;;;;;5062326;28;20963;-76
2023/08/27 11:01:04;;;;;;;5.20;4.70;;;;;;;;;;5070360;28;20475;-76
2023/08/27 11:03:56;;;;;;;9.33;6.67;;;;;;;;;;5071260;28;20863;-76
2023/08/27 11:06:38;;;;;;;3.30;2.73;;;;;;;;;;5052546;28;20512;-76
2023/08/27 11:09:16;;;;;;;3.27;2.50;;;;;;;;;;5068648;28;20459;-76
2023/08/27 11:11:45;;;;;;;3.50;3.20;;;;;;;;;;5071396;28;20455;-76
2023/08/27 11:14:12;;;;;;;3.33;2.97;;;;;;;;;;5072109;28;20459;-76
2023/08/27 11:16:46;;;;;;;3.57;3.20;;;;;;;;;;5072383;28;20447;-77
2023/08/27 11:19:13;;;;;;;5.77;3.80;;;;;;;;;;5072379;28;20959;-76
2023/08/27 11:21:41;;;;;;;3.77;3.10;;;;;;;;;;5072615;28;20450;-76
2023/08/27 11:24:16;;;;;;;5.13;3.23;;;;;;;;;;5072348;28;20462;-76
2023/08/27 11:26:44;;;;;;;3.50;2.50;;;;;;;;;;5072381;28;20465;-76
2023/08/27 11:29:11;;;;;;;5.10;3.10;;;;;;;;;;5072229;28;20938;-77
2023/08/27 11:31:39;;;;;;;5.63;4.27;;;;;;;;;;5072298;28;20462;-77
2023/08/27 11:34:07;;;;;;;4.33;3.90;;;;;;;;;;5072211;28;20451;-76
2023/08/27 11:36:34;;;;;;;4.67;3.27;;;;;;;;;;5072364;28;20758;-76
2023/08/27 11:39:05;;;;;;;2.30;1.90;;;;;;;;;;5072249;28;20446;-76
2023/08/27 11:41:37;;;;;;;2.60;1.90;;;;;;;;;;5072158;28;20459;-76
2023/08/27 11:44:05;;;;;;;3.00;2.70;;;;;;;;;;5071703;28;20498;-76
2023/08/27 11:46:32;;;;;;;2.70;2.47;;;;;;;;;;5072417;28;20448;-76
2023/08/27 11:48:59;;;;;;;3.13;2.53;;;;;;;;;;5071953;28;20940;-76
2023/08/27 11:51:27;;;;;;;2.60;2.40;;;;;;;;;;5072500;28;20452;-77
2023/08/27 11:53:54;;;;;;;3.37;1.97;;;;;;;;;;5072026;28;20844;-77
2023/08/27 11:56:21;;;;;;;2.30;2.10;;;;;;;;;;5072129;28;20455;-76
2023/08/27 11:58:52;;;;;;;3.00;2.30;;;;;;;;;;5071873;28;20820;-77
2023/08/27 12:01:20;;;;;;;2.50;2.10;;;;;;;;;;5072024;28;20448;-76
2023/08/27 12:03:48;;;;;;;3.00;2.03;;;;;;;;;;5071639;28;20499;-76
2023/08/27 12:06:20;;;;;;;3.87;2.33;;;;;;;;;;5072105;28;20452;-76
2023/08/27 12:08:50;;;;;;;2.10;1.80;;;;;;;;;;5071979;28;20455;-76
2023/08/27 12:11:18;;;;;;;3.17;2.73;;;;;;;;;;5071884;28;20580;-76
2023/08/27 12:13:47;;;;;;;2.67;2.47;;;;;;;;;;5071930;28;20473;-77
2023/08/27 12:16:15;;;;;;;3.00;2.70;;;;;;;;;;5072024;28;20789;-76
2023/08/27 12:18:47;;;;;;;2.50;2.30;;;;;;;;;;5071814;28;20444;-76
2023/08/27 12:21:14;;;;;;;2.27;2.07;;;;;;;;;;5071984;28;20444;-76
2023/08/27 12:23:51;;;;;;;2.70;2.50;;;;;;;;;;5071725;28;20495;-77
2023/08/27 12:26:19;;;;;;;3.63;2.40;;;;;;;;;;5071867;28;21001;-76
2023/08/27 12:28:53;;;;;;;2.70;2.20;;;;;;;;;;5071811;28;20948;-74
2023/08/27 12:31:25;;;;;;;4.90;2.23;;;;;;;;;;5072251;28;20424;-71
2023/08/27 12:33:57;;;;;;;3.07;2.77;;;;;;;;;;5072236;28;20994;-71
2023/08/27 12:36:25;;;;;;;3.83;2.47;;;;;;;;;;5072421;28;20772;-71
2023/08/27 12:38:52;;;;;;;2.67;1.93;;;;;;;;;;5075818;28;20959;-71
2023/08/27 12:41:19;;;;;;;2.90;2.10;;;;;;;;;;5075590;28;20448;-71
2023/08/27 12:43:47;;;;;;;2.17;1.97;;;;;;;;;;5075456;28;20860;-71
2023/08/27 12:46:14;;;;;;;2.87;2.43;;;;;;;;;;5075674;28;20920;-71
2023/08/27 12:48:42;;;;;;;7.07;1.97;;;;;;;;;;5075312;28;20554;-71
2023/08/27 12:51:09;;;;;;;3.40;2.90;;;;;;;;;;5075652;28;21125;-71
2023/08/27 12:53:37;;;;;;;2.97;2.60;;;;;;;;;;5075501;28;20472;-71
2023/08/27 12:56:04;;;;;;;2.37;2.17;;;;;;;;;;5075092;28;20451;-71
2023/08/27 12:58:31;;;;;;;3.03;2.53;;;;;;;;;;5075549;28;20856;-71
2023/08/27 13:01:00;;;;;;;3.27;2.30;;;;;;;;;;5075409;28;20452;-71
2023/08/27 13:03:27;;;;;;;2.60;2.40;;;;;;;;;;5075032;28;20495;-71
2023/08/27 13:05:56;;;;;;;2.63;2.17;;;;;;;;;;5075298;28;20858;-71
2023/08/27 13:08:24;;;;;;;2.30;2.10;;;;;;;;;;5075305;28;20521;-71
2023/08/27 13:10:51;;;;;;;3.90;2.77;;;;;;;;;;5075241;28;20805;-71
2023/08/27 13:13:18;;;;;;;3.83;3.20;;;;;;;;;;5074845;28;20554;-71
2023/08/27 13:15:45;;;;;;;2.80;2.53;;;;;;;;;;5075085;28;20443;-71
2023/08/27 13:18:12;;;;;;;3.27;2.50;;;;;;;;;;5074591;28;20463;-71
2023/08/27 13:20:40;;;;;;;3.10;2.47;;;;;;;;;;5075211;28;20444;-71
2023/08/27 13:23:08;;;;;;;4.77;2.50;;;;;;;;;;5074580;28;20483;-71
2023/08/27 13:25:35;;;;;;;3.33;2.13;;;;;;;;;;5074619;28;20539;-70
2023/08/27 13:28:02;;;;;;;2.43;2.23;;;;;;;;;;5074844;28;20497;-71
2023/08/27 13:30:29;;;;;;;3.20;2.90;;;;;;;;;;5074145;28;20470;-72
2023/08/27 13:32:58;;;;;;;3.60;3.30;;;;;;;;;;5074751;28;20530;-71
2023/08/27 13:35:25;;;;;;;3.33;2.60;;;;;;;;;;5074873;28;20912;-71
2023/08/27 13:37:52;;;;;;;2.40;2.20;;;;;;;;;;5074683;28;20447;-70
2023/08/27 13:40:20;;;;;;;3.80;3.40;;;;;;;;;;5074345;28;20458;-70
2023/08/27 13:42:48;;;;;;;3.30;3.00;;;;;;;;;;5074508;28;20491;-71
2023/08/27 13:45:15;;;;;;;2.73;2.10;;;;;;;;;;5074378;28;20455;-70
2023/08/27 13:47:42;;;;;;;2.20;1.97;;;;;;;;;;5075246;28;20428;-70
2023/08/27 13:50:09;;;;;;;4.50;2.23;;;;;;;;;;5074346;28;20444;-70
2023/08/27 13:52:37;;;;;;;3.90;2.43;;;;;;;;;;5074498;28;21014;-70
2023/08/27 13:55:04;;;;;;;6.73;2.93;;;;;;;;;;5074080;28;20447;-71
2023/08/27 13:57:32;;;;;;;4.97;3.80;;;;;;;;;;5074014;28;20472;-72
2023/08/27 14:00:00;;;;;;;3.00;2.70;;;;;;;;;;5073206;28;21009;-71
2023/08/27 14:02:27;;;;;;;3.73;3.43;;;;;;;;;;5072149;28;20467;-72
2023/08/27 14:04:54;;;;;;;2.80;2.60;;;;;;;;;;5071660;28;20491;-71
2023/08/27 14:07:21;;;;;;;2.73;2.50;;;;;;;;;;5071908;28;20452;-72
2023/08/27 14:09:48;;;;;;;3.70;2.93;;;;;;;;;;5071943;28;20451;-72
2023/08/27 14:12:15;;;;;;;5.93;2.63;;;;;;;;;;5071710;28;20910;-72
2023/08/27 14:14:44;;;;;;;2.83;2.57;;;;;;;;;;5071843;28;20440;-71
2023/08/27 14:17:12;;;;;;;5.43;3.20;;;;;;;;;;5071927;28;20786;-71
2023/08/27 14:19:40;;;;;;;2.93;2.20;;;;;;;;;;5071801;28;20447;-71
2023/08/27 14:22:07;;;;;;;4.43;2.43;;;;;;;;;;5071685;28;20841;-71
2023/08/27 14:24:34;;;;;;;3.10;2.70;;;;;;;;;;5071850;28;20488;-71
2023/08/27 14:27:01;;;;;;;3.47;2.50;;;;;;;;;;5072492;28;20451;-71
2023/08/27 14:29:28;;;;;;;5.30;2.30;;;;;;;;;;5072220;28;20483;-70
2023/08/27 14:31:57;;;;;;;6.33;3.20;;;;;;;;;;5072591;28;20468;-72
2023/08/27 14:34:24;;;;;;;2.80;2.20;;;;;;;;;;5072334;28;20440;-70
2023/08/27 14:36:51;;;;;;;3.80;2.50;;;;;;;;;;5072411;28;20819;-70
2023/08/27 14:39:18;;;;;;;5.90;2.40;;;;;;;;;;5072128;28;20546;-71
2023/08/27 14:41:46;;;;;;;2.70;2.37;;;;;;;;;;5072636;28;20637;-71
2023/08/27 14:44:13;;;;;;;2.20;1.87;;;;;;;;;;5072138;28;20494;-71